Belding, MI (48809)

5:24 PM EST on February 05, 2016 (GMT -0500)
Morgan Drive | | Change Station
CLOSE
Current Station
Personal Weather Station
Location: Belding, MI
Elevation: 807 ft
Nearby Weather Stations
Active Advisory: Flood Advisory

Elev 807 ft 43.09 °N, 85.24 °W | Updated 1 minute ago

Overcast
Overcast
31.0 °F
Feels Like 31 °F
N
0.0
Wind Variable Wind from SW
Gusts 3.0 mph

Today
High -- | Low -- °F
--% Chance of Precip.
Yesterday
High -- | Low -- °F
Precip. -- in
Pressure 30.29 in
Visibility 4.0 miles
Clouds Mostly Cloudy 1200 ft
Overcast 1900 ft
Windchill 31 °F
Dew Point 27 °F
Humidity 86%
Rainfall 0.00 in
Snow Depth Not available.
7:52 AM 5:58 PM
Waning Crescent, 9% visible
METAR KY70 052214Z AUTO 25005KT 4SM -SN BKN012 OVC019 M01/M02 A3029 RMK AO2 T10101022
Pressure 30.29 in
Visibility 4.0 miles
Clouds Mostly Cloudy 1200 ft
Overcast 1900 ft
Windchill 31 °F
Dew Point 27 °F
Humidity 86%
Rainfall 0.00 in
Snow Depth Not available.
7:52 AM 5:58 PM
Waning Crescent, 9% visible
METAR KY70 052214Z AUTO 25005KT 4SM -SN BKN012 OVC019 M01/M02 A3029 RMK AO2 T10101022

10-Day Weather Forecast

Almanac

Astronomy

Feb. 05, 2016 Rise Set
Actual Time
Civil Twilight
Nautical Twilight
Astronomical Twilight
Moon
Length of Visible Light
Length of Day
Tomorrow will be .
, % of the Moon is Illuminated

Today's Extremes

State Highs State Lows

Community

WunderPhotos

Upload Photos

1,890,878 photos uploaded!

WunderBlog® & News

Nearby

Air Quality

  Air Quality AQ Index Pollutant
Not available.

Snow Depth

Station Depth Elevation

Earthquake Activity

City Distance Mag. Time & Date
Minimum magnitude displayed is 2.5.

Coastal Water Temperatures

Place Temperature

Stations

Nearby Weather Stations

Station Location Temp. Windchill Dew Point Humidity Wind Precip. Elev Updated Type
                   

Watches & Warnings

Flood Advisory
Issued: 10:36 AM EST Feb. 5, 2016 – National Weather Service

The Flood Advisory continues for
the Grand River at Ionia
* until Sunday afternoon.
* At 09 am Friday the stage was 14.0 feet.
* Bankfull stage is 13.5 feet.
* Flood stage is 21.0 feet.
* Forecast, the river will rise to near 14.1 feet after midnight
tonight.
* Impact, at 13.5 feet... river is bankfull. Minor overflow begins in
low lying areas along the river near and across from the Ionia
Fairground.


Lat... Lon 4290 8521 4296 8499 4303 8488 4297 8524